sensor_id;sensor_type;location;lat;lon;timestamp;P1;durP1;ratioP1;P2;durP2;ratioP2
54831;SDS011;40730;53.068;6.572;2023-04-03T00:01:26;0.93;;;0.10;;
54831;SDS011;40730;53.068;6.572;2023-04-03T00:03:53;1.70;;;0.10;;
54831;SDS011;40730;53.068;6.572;2023-04-03T00:06:20;3.97;;;0.25;;
54831;SDS011;40730;53.068;6.572;2023-04-03T00:08:46;1.85;;;0.10;;
54831;SDS011;40730;53.068;6.572;2023-04-03T00:11:11;1.13;;;0.20;;
54831;SDS011;40730;53.068;6.572;2023-04-03T00:13:37;0.47;;;0.10;;
54831;SDS011;40730;53.068;6.572;2023-04-03T00:16:03;0.98;;;0.13;;
54831;SDS011;40730;53.068;6.572;2023-04-03T00:18:29;1.40;;;0.13;;
54831;SDS011;40730;53.068;6.572;2023-04-03T00:20:55;1.23;;;0.10;;
54831;SDS011;40730;53.068;6.572;2023-04-03T00:23:21;0.50;;;0.10;;
54831;SDS011;40730;53.068;6.572;2023-04-03T00:25:48;1.60;;;0.10;;
54831;SDS011;40730;53.068;6.572;2023-04-03T00:28:15;1.63;;;0.20;;
54831;SDS011;40730;53.068;6.572;2023-04-03T00:30:41;0.73;;;0.10;;
54831;SDS011;40730;53.068;6.572;2023-04-03T00:33:06;0.70;;;0.10;;
54831;SDS011;40730;53.068;6.572;2023-04-03T00:35:33;3.85;;;0.20;;
54831;SDS011;40730;53.068;6.572;2023-04-03T00:38:00;0.88;;;0.17;;
54831;SDS011;40730;53.068;6.572;2023-04-03T00:40:26;2.78;;;0.20;;
54831;SDS011;40730;53.068;6.572;2023-04-03T00:42:56;0.52;;;0.10;;
54831;SDS011;40730;53.068;6.572;2023-04-03T00:45:25;1.65;;;0.10;;
54831;SDS011;40730;53.068;6.572;2023-04-03T00:48:00;1.33;;;0.20;;
54831;SDS011;40730;53.068;6.572;2023-04-03T00:50:30;1.48;;;0.30;;
54831;SDS011;40730;53.068;6.572;2023-04-03T00:52:57;1.00;;;0.10;;
54831;SDS011;40730;53.068;6.572;2023-04-03T00:55:23;1.48;;;0.20;;
54831;SDS011;40730;53.068;6.572;2023-04-03T00:57:50;2.40;;;0.38;;
54831;SDS011;40730;53.068;6.572;2023-04-03T01:00:17;1.85;;;0.40;;
54831;SDS011;40730;53.068;6.572;2023-04-03T01:02:45;1.10;;;0.10;;
54831;SDS011;40730;53.068;6.572;2023-04-03T01:05:10;3.47;;;0.20;;
54831;SDS011;40730;53.068;6.572;2023-04-03T01:07:37;2.92;;;0.38;;
54831;SDS011;40730;53.068;6.572;2023-04-03T01:10:05;2.00;;;0.20;;
54831;SDS011;40730;53.068;6.572;2023-04-03T01:12:35;1.27;;;0.20;;
54831;SDS011;40730;53.068;6.572;2023-04-03T01:15:12;1.17;;;0.20;;
54831;SDS011;40730;53.068;6.572;2023-04-03T01:17:43;1.17;;;0.20;;
54831;SDS011;40730;53.068;6.572;2023-04-03T01:25:44;4.85;;;0.30;;
54831;SDS011;40730;53.068;6.572;2023-04-03T01:28:22;1.48;;;0.30;;
54831;SDS011;40730;53.068;6.572;2023-04-03T01:33:42;1.00;;;0.17;;
54831;SDS011;40730;53.068;6.572;2023-04-03T01:36:09;1.48;;;0.30;;
54831;SDS011;40730;53.068;6.572;2023-04-03T01:38:38;2.95;;;0.75;;
54831;SDS011;40730;53.068;6.572;2023-04-03T01:41:03;2.17;;;0.20;;
54831;SDS011;40730;53.068;6.572;2023-04-03T01:43:29;5.72;;;0.30;;
54831;SDS011;40730;53.068;6.572;2023-04-03T01:45:55;1.08;;;0.20;;
54831;SDS011;40730;53.068;6.572;2023-04-03T01:48:20;3.67;;;0.30;;
54831;SDS011;40730;53.068;6.572;2023-04-03T01:50:46;1.67;;;0.20;;
54831;SDS011;40730;53.068;6.572;2023-04-03T01:53:12;3.40;;;0.20;;
54831;SDS011;40730;53.068;6.572;2023-04-03T01:55:38;3.67;;;0.30;;
54831;SDS011;40730;53.068;6.572;2023-04-03T01:58:03;2.97;;;0.30;;
54831;SDS011;40730;53.068;6.572;2023-04-03T02:00:29;1.42;;;0.30;;
54831;SDS011;40730;53.068;6.572;2023-04-03T02:02:55;3.63;;;0.50;;
54831;SDS011;40730;53.068;6.572;2023-04-03T02:05:21;1.95;;;0.30;;
54831;SDS011;40730;53.068;6.572;2023-04-03T02:07:47;4.25;;;0.30;;
54831;SDS011;40730;53.068;6.572;2023-04-03T02:10:13;1.85;;;0.30;;
54831;SDS011;40730;53.068;6.572;2023-04-03T02:12:39;1.98;;;0.30;;
54831;SDS011;40730;53.068;6.572;2023-04-03T02:15:04;1.83;;;0.28;;
54831;SDS011;40730;53.068;6.572;2023-04-03T02:17:31;2.88;;;0.40;;
54831;SDS011;40730;53.068;6.572;2023-04-03T02:19:56;1.20;;;0.30;;
54831;SDS011;40730;53.068;6.572;2023-04-03T02:22:22;1.38;;;0.30;;
54831;SDS011;40730;53.068;6.572;2023-04-03T02:24:48;5.28;;;0.43;;
54831;SDS011;40730;53.068;6.572;2023-04-03T02:27:13;3.17;;;0.40;;
54831;SDS011;40730;53.068;6.572;2023-04-03T02:29:39;3.90;;;0.40;;
54831;SDS011;40730;53.068;6.572;2023-04-03T02:32:05;2.00;;;0.30;;
54831;SDS011;40730;53.068;6.572;2023-04-03T02:34:30;4.20;;;0.30;;
54831;SDS011;40730;53.068;6.572;2023-04-03T02:36:56;1.75;;;0.20;;
54831;SDS011;40730;53.068;6.572;2023-04-03T02:39:22;1.85;;;0.30;;
54831;SDS011;40730;53.068;6.572;2023-04-03T02:41:47;1.70;;;0.30;;
54831;SDS011;40730;53.068;6.572;2023-04-03T02:44:13;3.88;;;0.30;;
54831;SDS011;40730;53.068;6.572;2023-04-03T02:46:38;4.40;;;0.40;;
54831;SDS011;40730;53.068;6.572;2023-04-03T02:49:04;4.00;;;0.40;;
54831;SDS011;40730;53.068;6.572;2023-04-03T02:51:30;4.28;;;0.20;;
54831;SDS011;40730;53.068;6.572;2023-04-03T02:53:56;4.15;;;0.45;;
54831;SDS011;40730;53.068;6.572;2023-04-03T02:56:22;3.08;;;0.30;;
54831;SDS011;40730;53.068;6.572;2023-04-03T02:58:47;4.22;;;0.35;;
54831;SDS011;40730;53.068;6.572;2023-04-03T03:01:13;5.35;;;0.38;;
54831;SDS011;40730;53.068;6.572;2023-04-03T03:03:39;3.78;;;0.52;;
54831;SDS011;40730;53.068;6.572;2023-04-03T03:06:10;2.67;;;0.55;;
54831;SDS011;40730;53.068;6.572;2023-04-03T03:08:37;3.47;;;0.35;;
54831;SDS011;40730;53.068;6.572;2023-04-03T03:11:03;1.17;;;0.30;;
54831;SDS011;40730;53.068;6.572;2023-04-03T03:13:30;2.60;;;0.40;;
54831;SDS011;40730;53.068;6.572;2023-04-03T03:15:56;2.92;;;1.27;;
54831;SDS011;40730;53.068;6.572;2023-04-03T03:18:22;4.63;;;0.55;;
54831;SDS011;40730;53.068;6.572;2023-04-03T03:20:54;3.80;;;0.50;;
54831;SDS011;40730;53.068;6.572;2023-04-03T03:23:21;2.50;;;0.93;;
54831;SDS011;40730;53.068;6.572;2023-04-03T03:25:48;5.05;;;1.00;;
54831;SDS011;40730;53.068;6.572;2023-04-03T03:28:14;4.35;;;0.40;;
54831;SDS011;40730;53.068;6.572;2023-04-03T03:30:40;3.03;;;0.50;;
54831;SDS011;40730;53.068;6.572;2023-04-03T03:33:05;5.18;;;0.40;;
54831;SDS011;40730;53.068;6.572;2023-04-03T03:35:31;3.03;;;0.50;;
54831;SDS011;40730;53.068;6.572;2023-04-03T03:37:57;6.55;;;0.70;;
54831;SDS011;40730;53.068;6.572;2023-04-03T03:40:23;3.22;;;0.60;;
54831;SDS011;40730;53.068;6.572;2023-04-03T03:42:48;6.45;;;0.90;;
54831;SDS011;40730;53.068;6.572;2023-04-03T03:45:14;5.88;;;0.85;;
54831;SDS011;40730;53.068;6.572;2023-04-03T03:47:39;2.17;;;0.75;;
54831;SDS011;40730;53.068;6.572;2023-04-03T03:50:05;2.67;;;0.60;;
54831;SDS011;40730;53.068;6.572;2023-04-03T03:52:31;3.42;;;0.40;;
54831;SDS011;40730;53.068;6.572;2023-04-03T03:54:57;5.70;;;0.45;;
54831;SDS011;40730;53.068;6.572;2023-04-03T03:57:22;3.42;;;0.40;;
54831;SDS011;40730;53.068;6.572;2023-04-03T03:59:48;3.80;;;0.60;;
54831;SDS011;40730;53.068;6.572;2023-04-03T04:02:15;6.10;;;0.90;;
54831;SDS011;40730;53.068;6.572;2023-04-03T04:04:41;2.00;;;0.50;;
54831;SDS011;40730;53.068;6.572;2023-04-03T04:07:06;2.45;;;0.90;;
54831;SDS011;40730;53.068;6.572;2023-04-03T04:09:32;5.90;;;0.82;;
54831;SDS011;40730;53.068;6.572;2023-04-03T04:11:58;3.55;;;0.70;;
54831;SDS011;40730;53.068;6.572;2023-04-03T04:14:23;6.22;;;0.90;;
54831;SDS011;40730;53.068;6.572;2023-04-03T04:16:49;6.25;;;0.50;;
54831;SDS011;40730;53.068;6.572;2023-04-03T04:19:15;3.40;;;1.05;;
54831;SDS011;40730;53.068;6.572;2023-04-03T04:21:40;6.75;;;1.10;;
54831;SDS011;40730;53.068;6.572;2023-04-03T04:24:06;5.25;;;0.88;;
54831;SDS011;40730;53.068;6.572;2023-04-03T04:26:33;6.05;;;1.27;;
54831;SDS011;40730;53.068;6.572;2023-04-03T04:28:59;5.93;;;0.95;;
54831;SDS011;40730;53.068;6.572;2023-04-03T04:31:25;4.55;;;0.73;;
54831;SDS011;40730;53.068;6.572;2023-04-03T04:33:50;7.57;;;0.88;;
54831;SDS011;40730;53.068;6.572;2023-04-03T04:36:16;7.50;;;1.33;;
54831;SDS011;40730;53.068;6.572;2023-04-03T04:38:42;5.60;;;0.57;;
54831;SDS011;40730;53.068;6.572;2023-04-03T04:41:07;3.97;;;0.88;;
54831;SDS011;40730;53.068;6.572;2023-04-03T04:43:33;6.28;;;1.00;;
54831;SDS011;40730;53.068;6.572;2023-04-03T04:46:00;7.55;;;0.90;;
54831;SDS011;40730;53.068;6.572;2023-04-03T04:48:30;5.20;;;0.85;;
54831;SDS011;40730;53.068;6.572;2023-04-03T04:50:56;3.95;;;0.80;;
54831;SDS011;40730;53.068;6.572;2023-04-03T04:53:21;7.07;;;0.57;;
54831;SDS011;40730;53.068;6.572;2023-04-03T04:55:47;4.93;;;0.93;;
54831;SDS011;40730;53.068;6.572;2023-04-03T04:58:13;5.07;;;0.95;;
54831;SDS011;40730;53.068;6.572;2023-04-03T05:00:39;4.60;;;0.90;;
54831;SDS011;40730;53.068;6.572;2023-04-03T05:03:04;6.30;;;0.75;;
54831;SDS011;40730;53.068;6.572;2023-04-03T05:05:30;5.63;;;2.35;;
54831;SDS011;40730;53.068;6.572;2023-04-03T05:07:55;6.88;;;1.25;;
54831;SDS011;40730;53.068;6.572;2023-04-03T05:10:21;5.22;;;0.80;;
54831;SDS011;40730;53.068;6.572;2023-04-03T05:12:47;3.85;;;1.00;;
54831;SDS011;40730;53.068;6.572;2023-04-03T05:15:12;5.50;;;1.15;;
54831;SDS011;40730;53.068;6.572;2023-04-03T05:17:38;5.45;;;1.10;;
54831;SDS011;40730;53.068;6.572;2023-04-03T05:20:04;3.72;;;0.73;;
54831;SDS011;40730;53.068;6.572;2023-04-03T05:22:30;6.10;;;1.02;;
54831;SDS011;40730;53.068;6.572;2023-04-03T05:24:56;5.85;;;1.17;;
54831;SDS011;40730;53.068;6.572;2023-04-03T05:27:22;7.47;;;0.98;;
54831;SDS011;40730;53.068;6.572;2023-04-03T05:29:49;6.07;;;1.67;;
54831;SDS011;40730;53.068;6.572;2023-04-03T05:32:15;3.80;;;1.00;;
54831;SDS011;40730;53.068;6.572;2023-04-03T05:34:41;4.93;;;0.90;;
54831;SDS011;40730;53.068;6.572;2023-04-03T05:37:06;7.35;;;1.40;;
54831;SDS011;40730;53.068;6.572;2023-04-03T05:39:32;5.93;;;1.38;;
54831;SDS011;40730;53.068;6.572;2023-04-03T05:41:58;5.90;;;1.27;;
54831;SDS011;40730;53.068;6.572;2023-04-03T05:44:24;6.10;;;1.23;;
54831;SDS011;40730;53.068;6.572;2023-04-03T05:46:50;6.32;;;2.22;;
54831;SDS011;40730;53.068;6.572;2023-04-03T05:49:16;8.13;;;1.48;;
54831;SDS011;40730;53.068;6.572;2023-04-03T05:51:41;12.43;;;1.83;;
54831;SDS011;40730;53.068;6.572;2023-04-03T05:54:16;6.50;;;1.45;;
54831;SDS011;40730;53.068;6.572;2023-04-03T05:56:50;9.65;;;1.67;;
54831;SDS011;40730;53.068;6.572;2023-04-03T05:59:16;5.30;;;1.50;;
54831;SDS011;40730;53.068;6.572;2023-04-03T06:01:43;6.35;;;2.00;;
54831;SDS011;40730;53.068;6.572;2023-04-03T06:04:09;8.02;;;1.58;;
54831;SDS011;40730;53.068;6.572;2023-04-03T06:09:11;8.10;;;1.58;;
54831;SDS011;40730;53.068;6.572;2023-04-03T06:11:37;5.25;;;1.55;;
54831;SDS011;40730;53.068;6.572;2023-04-03T06:14:02;6.72;;;1.40;;
54831;SDS011;40730;53.068;6.572;2023-04-03T06:16:28;7.88;;;2.53;;
54831;SDS011;40730;53.068;6.572;2023-04-03T06:18:54;6.35;;;2.13;;
54831;SDS011;40730;53.068;6.572;2023-04-03T06:21:21;3.20;;;1.33;;
54831;SDS011;40730;53.068;6.572;2023-04-03T06:23:46;4.07;;;2.33;;
54831;SDS011;40730;53.068;6.572;2023-04-03T06:26:12;7.95;;;1.25;;
54831;SDS011;40730;53.068;6.572;2023-04-03T06:28:37;5.43;;;1.67;;
54831;SDS011;40730;53.068;6.572;2023-04-03T06:31:03;5.25;;;1.15;;
54831;SDS011;40730;53.068;6.572;2023-04-03T06:33:28;4.43;;;0.70;;
54831;SDS011;40730;53.068;6.572;2023-04-03T06:35:58;9.80;;;1.35;;
54831;SDS011;40730;53.068;6.572;2023-04-03T06:38:23;6.40;;;1.00;;
54831;SDS011;40730;53.068;6.572;2023-04-03T06:40:49;5.30;;;1.35;;
54831;SDS011;40730;53.068;6.572;2023-04-03T06:43:16;3.05;;;0.90;;
54831;SDS011;40730;53.068;6.572;2023-04-03T06:45:42;7.05;;;1.35;;
54831;SDS011;40730;53.068;6.572;2023-04-03T06:48:09;7.30;;;1.00;;
54831;SDS011;40730;53.068;6.572;2023-04-03T06:50:35;7.55;;;1.08;;
54831;SDS011;40730;53.068;6.572;2023-04-03T06:53:00;5.38;;;1.25;;
54831;SDS011;40730;53.068;6.572;2023-04-03T06:55:26;3.88;;;0.90;;
54831;SDS011;40730;53.068;6.572;2023-04-03T06:57:52;5.07;;;1.00;;
54831;SDS011;40730;53.068;6.572;2023-04-03T07:00:18;5.45;;;1.02;;
54831;SDS011;40730;53.068;6.572;2023-04-03T07:02:44;2.42;;;0.55;;
54831;SDS011;40730;53.068;6.572;2023-04-03T07:05:10;5.68;;;1.00;;
54831;SDS011;40730;53.068;6.572;2023-04-03T07:07:36;7.90;;;1.00;;
54831;SDS011;40730;53.068;6.572;2023-04-03T07:10:02;6.50;;;1.13;;
54831;SDS011;40730;53.068;6.572;2023-04-03T07:12:29;3.67;;;0.68;;
54831;SDS011;40730;53.068;6.572;2023-04-03T07:14:54;4.60;;;0.93;;
54831;SDS011;40730;53.068;6.572;2023-04-03T07:17:20;3.78;;;0.60;;
54831;SDS011;40730;53.068;6.572;2023-04-03T07:19:45;4.85;;;0.70;;
54831;SDS011;40730;53.068;6.572;2023-04-03T07:22:11;6.13;;;0.70;;
54831;SDS011;40730;53.068;6.572;2023-04-03T07:24:37;8.55;;;0.80;;
54831;SDS011;40730;53.068;6.572;2023-04-03T07:27:02;4.15;;;0.70;;
54831;SDS011;40730;53.068;6.572;2023-04-03T07:29:28;3.85;;;0.50;;
54831;SDS011;40730;53.068;6.572;2023-04-03T07:31:53;3.42;;;0.60;;
54831;SDS011;40730;53.068;6.572;2023-04-03T07:34:20;6.47;;;0.77;;
54831;SDS011;40730;53.068;6.572;2023-04-03T07:36:46;6.68;;;0.60;;
54831;SDS011;40730;53.068;6.572;2023-04-03T07:39:12;7.75;;;0.75;;
54831;SDS011;40730;53.068;6.572;2023-04-03T07:41:38;5.50;;;0.63;;
54831;SDS011;40730;53.068;6.572;2023-04-03T07:44:03;5.55;;;0.70;;
54831;SDS011;40730;53.068;6.572;2023-04-03T07:46:30;3.15;;;0.30;;
54831;SDS011;40730;53.068;6.572;2023-04-03T07:48:56;4.03;;;0.50;;
54831;SDS011;40730;53.068;6.572;2023-04-03T07:51:22;3.40;;;0.60;;
54831;SDS011;40730;53.068;6.572;2023-04-03T07:53:49;4.90;;;0.70;;
54831;SDS011;40730;53.068;6.572;2023-04-03T07:56:14;2.40;;;0.65;;
54831;SDS011;40730;53.068;6.572;2023-04-03T07:58:42;7.57;;;0.70;;
54831;SDS011;40730;53.068;6.572;2023-04-03T08:01:07;3.35;;;0.57;;
54831;SDS011;40730;53.068;6.572;2023-04-03T08:03:33;2.63;;;0.60;;
54831;SDS011;40730;53.068;6.572;2023-04-03T08:06:02;3.20;;;0.60;;
54831;SDS011;40730;53.068;6.572;2023-04-03T08:08:29;6.00;;;0.65;;
54831;SDS011;40730;53.068;6.572;2023-04-03T08:10:57;2.15;;;0.60;;
54831;SDS011;40730;53.068;6.572;2023-04-03T08:13:24;2.28;;;0.50;;
54831;SDS011;40730;53.068;6.572;2023-04-03T08:15:49;1.92;;;0.75;;
54831;SDS011;40730;53.068;6.572;2023-04-03T08:18:16;4.95;;;0.50;;
54831;SDS011;40730;53.068;6.572;2023-04-03T08:20:42;2.30;;;0.40;;
54831;SDS011;40730;53.068;6.572;2023-04-03T08:23:08;4.82;;;0.40;;
54831;SDS011;40730;53.068;6.572;2023-04-03T08:25:37;3.63;;;0.30;;
54831;SDS011;40730;53.068;6.572;2023-04-03T08:28:06;2.60;;;0.50;;
54831;SDS011;40730;53.068;6.572;2023-04-03T08:30:32;3.97;;;0.40;;
54831;SDS011;40730;53.068;6.572;2023-04-03T08:33:02;3.95;;;0.40;;
54831;SDS011;40730;53.068;6.572;2023-04-03T08:35:28;1.05;;;0.20;;
54831;SDS011;40730;53.068;6.572;2023-04-03T08:37:54;2.28;;;0.30;;
54831;SDS011;40730;53.068;6.572;2023-04-03T08:40:20;4.53;;;0.47;;
54831;SDS011;40730;53.068;6.572;2023-04-03T08:48:35;2.47;;;0.35;;
54831;SDS011;40730;53.068;6.572;2023-04-03T08:51:09;1.95;;;0.30;;
54831;SDS011;40730;53.068;6.572;2023-04-03T08:53:41;1.80;;;0.43;;
54831;SDS011;40730;53.068;6.572;2023-04-03T08:56:29;2.75;;;0.30;;
54831;SDS011;40730;53.068;6.572;2023-04-03T08:58:57;1.98;;;0.30;;
54831;SDS011;40730;53.068;6.572;2023-04-03T09:01:34;5.63;;;0.30;;
54831;SDS011;40730;53.068;6.572;2023-04-03T09:04:05;1.58;;;0.22;;
54831;SDS011;40730;53.068;6.572;2023-04-03T09:06:36;3.08;;;0.30;;
54831;SDS011;40730;53.068;6.572;2023-04-03T09:17:41;1.20;;;0.25;;
54831;SDS011;40730;53.068;6.572;2023-04-03T09:20:24;2.88;;;0.70;;
54831;SDS011;40730;53.068;6.572;2023-04-03T09:22:52;1.42;;;0.22;;
54831;SDS011;40730;53.068;6.572;2023-04-03T09:27:47;2.10;;;0.30;;
54831;SDS011;40730;53.068;6.572;2023-04-03T09:30:23;2.53;;;0.50;;
54831;SDS011;40730;53.068;6.572;2023-04-03T09:32:51;2.58;;;0.20;;
54831;SDS011;40730;53.068;6.572;2023-04-03T09:37:52;1.92;;;0.20;;
54831;SDS011;40730;53.068;6.572;2023-04-03T09:42:51;1.10;;;0.10;;
54831;SDS011;40730;53.068;6.572;2023-04-03T09:45:39;0.88;;;0.17;;
54831;SDS011;40730;53.068;6.572;2023-04-03T09:48:12;1.67;;;0.30;;
54831;SDS011;40730;53.068;6.572;2023-04-03T09:53:29;2.00;;;0.20;;
54831;SDS011;40730;53.068;6.572;2023-04-03T09:58:41;1.20;;;0.20;;
54831;SDS011;40730;53.068;6.572;2023-04-03T10:04:07;1.75;;;0.25;;
54831;SDS011;40730;53.068;6.572;2023-04-03T10:06:34;1.08;;;0.20;;
54831;SDS011;40730;53.068;6.572;2023-04-03T10:11:57;0.57;;;0.10;;
54831;SDS011;40730;53.068;6.572;2023-04-03T10:14:26;1.52;;;0.45;;
54831;SDS011;40730;53.068;6.572;2023-04-03T10:20:09;0.82;;;0.10;;
54831;SDS011;40730;53.068;6.572;2023-04-03T10:23:05;1.60;;;0.20;;
54831;SDS011;40730;53.068;6.572;2023-04-03T10:28:29;0.55;;;0.20;;
54831;SDS011;40730;53.068;6.572;2023-04-03T10:33:51;2.42;;;0.20;;
54831;SDS011;40730;53.068;6.572;2023-04-03T10:55:46;0.38;;;0.10;;
54831;SDS011;40730;53.068;6.572;2023-04-03T10:58:28;1.90;;;0.10;;
54831;SDS011;40730;53.068;6.572;2023-04-03T11:01:01;0.93;;;0.10;;
54831;SDS011;40730;53.068;6.572;2023-04-03T11:03:33;0.93;;;0.10;;
54831;SDS011;40730;53.068;6.572;2023-04-03T11:06:02;1.17;;;0.10;;
54831;SDS011;40730;53.068;6.572;2023-04-03T11:11:35;0.38;;;0.10;;
54831;SDS011;40730;53.068;6.572;2023-04-03T11:16:36;0.75;;;0.20;;
54831;SDS011;40730;53.068;6.572;2023-04-03T11:19:50;0.73;;;0.10;;
54831;SDS011;40730;53.068;6.572;2023-04-03T11:22:00;0.68;;;0.10;;
54831;SDS011;40730;53.068;6.572;2023-04-03T11:27:05;0.85;;;0.20;;
54831;SDS011;40730;53.068;6.572;2023-04-03T11:29:34;0.73;;;0.30;;
54831;SDS011;40730;53.068;6.572;2023-04-03T11:35:05;1.40;;;0.20;;
54831;SDS011;40730;53.068;6.572;2023-04-03T11:37:38;1.67;;;0.20;;
54831;SDS011;40730;53.068;6.572;2023-04-03T11:42:48;0.95;;;0.10;;
54831;SDS011;40730;53.068;6.572;2023-04-03T11:48:05;1.13;;;0.10;;
54831;SDS011;40730;53.068;6.572;2023-04-03T11:50:52;3.38;;;0.20;;
54831;SDS011;40730;53.068;6.572;2023-04-03T12:00:49;1.38;;;0.10;;
54831;SDS011;40730;53.068;6.572;2023-04-03T12:08:27;4.22;;;0.20;;
54831;SDS011;40730;53.068;6.572;2023-04-03T12:13:42;0.90;;;0.20;;
54831;SDS011;40730;53.068;6.572;2023-04-03T12:21:16;0.70;;;0.13;;
54831;SDS011;40730;53.068;6.572;2023-04-03T12:29:20;2.53;;;0.10;;
54831;SDS011;40730;53.068;6.572;2023-04-03T12:45:47;1.75;;;0.20;;
54831;SDS011;40730;53.068;6.572;2023-04-03T12:48:18;0.83;;;0.13;;
54831;SDS011;40730;53.068;6.572;2023-04-03T12:50:51;1.13;;;0.30;;
54831;SDS011;40730;53.068;6.572;2023-04-03T12:53:18;1.50;;;0.20;;
54831;SDS011;40730;53.068;6.572;2023-04-03T12:55:47;1.83;;;0.30;;
54831;SDS011;40730;53.068;6.572;2023-04-03T12:58:25;0.60;;;0.20;;
54831;SDS011;40730;53.068;6.572;2023-04-03T13:00:59;4.10;;;0.20;;
54831;SDS011;40730;53.068;6.572;2023-04-03T13:03:29;0.70;;;0.20;;
54831;SDS011;40730;53.068;6.572;2023-04-03T13:05:57;1.75;;;0.15;;
54831;SDS011;40730;53.068;6.572;2023-04-03T13:08:28;2.38;;;0.20;;
54831;SDS011;40730;53.068;6.572;2023-04-03T13:11:11;1.55;;;0.20;;
54831;SDS011;40730;53.068;6.572;2023-04-03T13:13:37;0.95;;;0.20;;
54831;SDS011;40730;53.068;6.572;2023-04-03T13:16:08;1.48;;;0.20;;
54831;SDS011;40730;53.068;6.572;2023-04-03T13:18:36;1.80;;;0.30;;
54831;SDS011;40730;53.068;6.572;2023-04-03T13:21:04;1.10;;;0.20;;
54831;SDS011;40730;53.068;6.572;2023-04-03T13:23:30;1.88;;;0.22;;
54831;SDS011;40730;53.068;6.572;2023-04-03T13:25:59;2.00;;;0.30;;
54831;SDS011;40730;53.068;6.572;2023-04-03T13:28:29;1.00;;;0.30;;
54831;SDS011;40730;53.068;6.572;2023-04-03T13:31:01;1.25;;;0.28;;
54831;SDS011;40730;53.068;6.572;2023-04-03T13:33:31;1.10;;;0.20;;
54831;SDS011;40730;53.068;6.572;2023-04-03T13:36:24;0.93;;;0.20;;
54831;SDS011;40730;53.068;6.572;2023-04-03T13:38:58;1.13;;;0.20;;
54831;SDS011;40730;53.068;6.572;2023-04-03T13:41:51;2.08;;;0.50;;
54831;SDS011;40730;53.068;6.572;2023-04-03T13:47:37;1.30;;;0.35;;
54831;SDS011;40730;53.068;6.572;2023-04-03T13:50:11;0.63;;;0.10;;
54831;SDS011;40730;53.068;6.572;2023-04-03T13:55:21;0.70;;;0.30;;
54831;SDS011;40730;53.068;6.572;2023-04-03T13:58:00;1.52;;;0.28;;
54831;SDS011;40730;53.068;6.572;2023-04-03T14:03:19;1.33;;;0.20;;
54831;SDS011;40730;53.068;6.572;2023-04-03T14:05:51;3.45;;;0.30;;
54831;SDS011;40730;53.068;6.572;2023-04-03T14:08:17;2.20;;;0.30;;
54831;SDS011;40730;53.068;6.572;2023-04-03T14:10:44;1.23;;;0.10;;
54831;SDS011;40730;53.068;6.572;2023-04-03T14:13:13;0.95;;;0.20;;
54831;SDS011;40730;53.068;6.572;2023-04-03T14:15:40;1.33;;;0.20;;
54831;SDS011;40730;53.068;6.572;2023-04-03T14:18:09;1.83;;;0.20;;
54831;SDS011;40730;53.068;6.572;2023-04-03T14:20:36;1.88;;;0.52;;
54831;SDS011;40730;53.068;6.572;2023-04-03T14:23:02;1.02;;;0.20;;
54831;SDS011;40730;53.068;6.572;2023-04-03T14:25:27;1.85;;;0.30;;
54831;SDS011;40730;53.068;6.572;2023-04-03T14:27:54;1.08;;;0.10;;
54831;SDS011;40730;53.068;6.572;2023-04-03T14:30:28;0.95;;;0.20;;
54831;SDS011;40730;53.068;6.572;2023-04-03T14:32:56;2.80;;;0.30;;
54831;SDS011;40730;53.068;6.572;2023-04-03T14:35:22;1.85;;;0.10;;
54831;SDS011;40730;53.068;6.572;2023-04-03T14:37:48;1.35;;;0.20;;
54831;SDS011;40730;53.068;6.572;2023-04-03T14:40:17;1.55;;;0.20;;
54831;SDS011;40730;53.068;6.572;2023-04-03T14:42:45;0.50;;;0.10;;
54831;SDS011;40730;53.068;6.572;2023-04-03T14:45:13;0.52;;;0.10;;
54831;SDS011;40730;53.068;6.572;2023-04-03T14:47:41;1.73;;;0.20;;
54831;SDS011;40730;53.068;6.572;2023-04-03T14:50:12;0.80;;;0.20;;
54831;SDS011;40730;53.068;6.572;2023-04-03T14:52:42;1.63;;;0.10;;
54831;SDS011;40730;53.068;6.572;2023-04-03T14:55:08;0.50;;;0.10;;
54831;SDS011;40730;53.068;6.572;2023-04-03T14:57:34;0.85;;;0.10;;
54831;SDS011;40730;53.068;6.572;2023-04-03T15:00:00;2.38;;;0.22;;
54831;SDS011;40730;53.068;6.572;2023-04-03T15:02:34;0.77;;;0.10;;
54831;SDS011;40730;53.068;6.572;2023-04-03T15:05:06;0.77;;;0.10;;
54831;SDS011;40730;53.068;6.572;2023-04-03T15:07:35;2.97;;;0.10;;
54831;SDS011;40730;53.068;6.572;2023-04-03T15:12:40;0.98;;;0.10;;
54831;SDS011;40730;53.068;6.572;2023-04-03T15:15:07;0.63;;;0.10;;
54831;SDS011;40730;53.068;6.572;2023-04-03T15:17:33;1.33;;;0.10;;
54831;SDS011;40730;53.068;6.572;2023-04-03T15:20:00;1.35;;;0.20;;
54831;SDS011;40730;53.068;6.572;2023-04-03T15:22:26;1.85;;;0.15;;
54831;SDS011;40730;53.068;6.572;2023-04-03T15:24:51;1.63;;;0.10;;
54831;SDS011;40730;53.068;6.572;2023-04-03T15:27:18;2.00;;;0.20;;
54831;SDS011;40730;53.068;6.572;2023-04-03T15:29:44;1.17;;;0.20;;
54831;SDS011;40730;53.068;6.572;2023-04-03T15:32:10;2.97;;;1.55;;
54831;SDS011;40730;53.068;6.572;2023-04-03T15:34:36;0.47;;;0.10;;
54831;SDS011;40730;53.068;6.572;2023-04-03T15:37:02;1.13;;;0.10;;
54831;SDS011;40730;53.068;6.572;2023-04-03T15:39:28;1.42;;;0.20;;
54831;SDS011;40730;53.068;6.572;2023-04-03T15:41:54;1.13;;;0.20;;
54831;SDS011;40730;53.068;6.572;2023-04-03T15:44:21;1.40;;;0.28;;
54831;SDS011;40730;53.068;6.572;2023-04-03T15:46:47;2.05;;;0.30;;
54831;SDS011;40730;53.068;6.572;2023-04-03T15:49:16;1.25;;;0.20;;
54831;SDS011;40730;53.068;6.572;2023-04-03T15:51:43;2.05;;;0.38;;
54831;SDS011;40730;53.068;6.572;2023-04-03T15:54:09;2.65;;;0.22;;
54831;SDS011;40730;53.068;6.572;2023-04-03T15:56:35;3.63;;;0.20;;
54831;SDS011;40730;53.068;6.572;2023-04-03T15:59:01;2.22;;;0.30;;
54831;SDS011;40730;53.068;6.572;2023-04-03T16:01:26;0.98;;;0.20;;
54831;SDS011;40730;53.068;6.572;2023-04-03T16:03:53;0.73;;;0.20;;
54831;SDS011;40730;53.068;6.572;2023-04-03T16:06:19;1.38;;;0.17;;
54831;SDS011;40730;53.068;6.572;2023-04-03T16:08:45;2.92;;;0.20;;
54831;SDS011;40730;53.068;6.572;2023-04-03T16:11:12;0.85;;;0.20;;
54831;SDS011;40730;53.068;6.572;2023-04-03T16:13:38;1.20;;;0.20;;
54831;SDS011;40730;53.068;6.572;2023-04-03T16:16:03;1.20;;;0.40;;
54831;SDS011;40730;53.068;6.572;2023-04-03T16:18:30;0.85;;;0.30;;
54831;SDS011;40730;53.068;6.572;2023-04-03T16:20:56;2.08;;;0.10;;
54831;SDS011;40730;53.068;6.572;2023-04-03T16:23:22;2.50;;;0.30;;
54831;SDS011;40730;53.068;6.572;2023-04-03T16:25:48;0.70;;;0.20;;
54831;SDS011;40730;53.068;6.572;2023-04-03T16:28:15;1.33;;;0.20;;
54831;SDS011;40730;53.068;6.572;2023-04-03T16:30:43;0.77;;;0.10;;
54831;SDS011;40730;53.068;6.572;2023-04-03T16:33:10;1.90;;;0.35;;
54831;SDS011;40730;53.068;6.572;2023-04-03T16:35:41;2.75;;;0.47;;
54831;SDS011;40730;53.068;6.572;2023-04-03T16:38:08;1.10;;;0.20;;
54831;SDS011;40730;53.068;6.572;2023-04-03T16:40:34;0.75;;;0.20;;
54831;SDS011;40730;53.068;6.572;2023-04-03T16:43:02;1.70;;;0.10;;
54831;SDS011;40730;53.068;6.572;2023-04-03T16:45:28;1.05;;;0.10;;
54831;SDS011;40730;53.068;6.572;2023-04-03T16:47:54;0.82;;;0.10;;
54831;SDS011;40730;53.068;6.572;2023-04-03T16:50:19;0.73;;;0.30;;
54831;SDS011;40730;53.068;6.572;2023-04-03T16:52:45;1.38;;;0.10;;
54831;SDS011;40730;53.068;6.572;2023-04-03T16:55:11;1.13;;;0.10;;
54831;SDS011;40730;53.068;6.572;2023-04-03T16:57:37;2.72;;;0.20;;
54831;SDS011;40730;53.068;6.572;2023-04-03T17:00:03;0.93;;;0.10;;
54831;SDS011;40730;53.068;6.572;2023-04-03T17:02:30;1.95;;;0.22;;
54831;SDS011;40730;53.068;6.572;2023-04-03T17:04:56;1.40;;;0.20;;
54831;SDS011;40730;53.068;6.572;2023-04-03T17:07:23;1.42;;;0.20;;
54831;SDS011;40730;53.068;6.572;2023-04-03T17:09:49;1.80;;;0.20;;
54831;SDS011;40730;53.068;6.572;2023-04-03T17:12:15;0.73;;;0.10;;